SBMO/MCZ METAR and TAF weather

Enter ICAO airport designator
Station Type Date Time Source
SBMO METAR 2022/01/27 23:00 UTC NOAA

SBMO 272300Z 08004KT 9999 FEW023 26/24 Q1011


Station Type Date Time Source
SBMO Decoded METAR 2022/01/27 23:00 UTC NOAA

Maceio Aeroporto , Brazil (SBMO) 09-31S 035-47W 115M
Jan 27, 2022 - 06:00 PM EST / 2022.01.27 2300 UTC
Wind: from the E (080 degrees) at 5 MPH (4 KT):0
Visibility: greater than 7 mile(s):0
Sky conditions: mostly clear
Temperature: 78 F (26 C)
Dew Point: 75 F (24 C)
Relative Humidity: 88%
Pressure (altimeter): 29.85 in. Hg (1011 hPa)
ob: SBMO 272300Z 08004KT 9999 FEW023 26/24 Q1011
cycle: 23

Station Type Date Time Source
SBMO TAF 2022/01/27 18:58 UTC NOAA

TAF SBMO 271655Z 2718/2818 12012KT 9999 BKN020 TX31/2718Z TN24/2809Z
BECMG 2718/2720 10015KT 7000 SHRA BKN020 FEW030TCU
BECMG 2720/2723 07007KT 9999 NSW SCT020
BECMG 2805/2807 06007KT 6000 RA BKN015
BECMG 2807/2809 29003KT 9999 NSW BKN017
BECMG 2809/2812 09010KT BKN020 FEW025TCU
BECMG 2812/2814 BKN025
BECMG 2816/2818 12015KT 7000 TSRA BKN020 FEW030CB
RMK PFV

Example: see airport list